createdAt,value
2023-02-27T00:02:23.455Z,11.63
2023-02-27T00:04:50.505Z,9.00
2023-02-27T00:07:17.814Z,10.45
2023-02-27T00:09:44.416Z,10.80
2023-02-27T00:12:11.995Z,8.48
2023-02-27T00:14:38.715Z,10.63
2023-02-27T00:17:05.300Z,11.03
2023-02-27T00:19:31.868Z,13.13
2023-02-27T00:21:58.411Z,10.10
2023-02-27T00:24:25.175Z,12.80
2023-02-27T00:26:51.685Z,11.25
2023-02-27T00:29:18.302Z,11.33
2023-02-27T00:31:45.093Z,10.23
2023-02-27T00:34:11.723Z,9.77
2023-02-27T00:36:38.343Z,11.38
2023-02-27T00:39:04.978Z,10.15
2023-02-27T00:41:31.553Z,12.30
2023-02-27T00:43:58.271Z,14.35
2023-02-27T00:46:25.029Z,11.48
2023-02-27T00:48:51.845Z,11.23
2023-02-27T00:51:20.301Z,9.73
2023-02-27T00:53:46.936Z,9.73
2023-02-27T00:56:14.022Z,8.93
2023-02-27T00:58:40.605Z,10.38
2023-02-27T01:01:07.264Z,12.13
2023-02-27T01:03:33.888Z,9.60
2023-02-27T01:06:00.521Z,9.13
2023-02-27T01:08:27.183Z,11.20
2023-02-27T01:10:55.277Z,8.90
2023-02-27T01:13:22.776Z,8.98
2023-02-27T01:15:49.732Z,8.65
2023-02-27T01:18:19.028Z,8.67
2023-02-27T01:20:46.051Z,8.80
2023-02-27T01:23:12.708Z,8.43
2023-02-27T01:25:39.368Z,8.23
2023-02-27T01:28:06.037Z,7.57
2023-02-27T01:30:32.781Z,8.90
2023-02-27T01:32:59.498Z,7.78
2023-02-27T01:35:26.641Z,8.23
2023-02-27T01:37:53.428Z,7.53
2023-02-27T01:40:20.381Z,7.78
2023-02-27T01:42:47.206Z,7.60
2023-02-27T01:45:32.790Z,7.80
2023-02-27T01:48:10.136Z,7.85
2023-02-27T01:50:41.763Z,7.65
2023-02-27T01:53:08.742Z,8.02
2023-02-27T01:55:38.858Z,7.33
2023-02-27T01:58:07.942Z,7.90
2023-02-27T02:00:34.820Z,8.07
2023-02-27T02:03:08.341Z,7.75
2023-02-27T02:05:35.807Z,7.57
2023-02-27T02:08:03.582Z,7.53
2023-02-27T02:10:31.660Z,5.90
2023-02-27T02:12:58.996Z,7.55
2023-02-27T02:15:33.509Z,7.07
2023-02-27T02:18:03.010Z,6.95
2023-02-27T02:20:45.500Z,8.80
2023-02-27T02:23:27.722Z,6.68
2023-02-27T02:26:33.524Z,8.07
2023-02-27T02:29:25.157Z,9.88
2023-02-27T02:32:18.966Z,7.40
2023-02-27T02:35:17.190Z,7.13
2023-02-27T02:37:58.901Z,8.13
2023-02-27T02:40:30.477Z,8.82
2023-02-27T02:43:17.289Z,7.38
2023-02-27T02:46:02.313Z,7.22
2023-02-27T02:48:41.949Z,9.37
2023-02-27T02:51:14.547Z,6.88
2023-02-27T02:53:51.660Z,8.70
2023-02-27T02:56:26.358Z,9.23
2023-02-27T02:59:16.114Z,9.68
2023-02-27T03:01:49.131Z,7.93
2023-02-27T03:04:39.682Z,7.40
2023-02-27T03:07:31.566Z,8.82
2023-02-27T03:10:05.158Z,7.97
2023-02-27T03:12:33.798Z,7.72
2023-02-27T03:15:10.846Z,8.10
2023-02-27T03:18:04.888Z,7.65
2023-02-27T03:20:39.742Z,7.55
2023-02-27T03:23:11.929Z,7.53
2023-02-27T03:25:40.096Z,7.82
2023-02-27T03:28:10.934Z,8.20
2023-02-27T03:30:46.914Z,7.57
2023-02-27T03:33:53.152Z,7.28
2023-02-27T03:36:43.304Z,7.63
2023-02-27T03:39:25.272Z,8.13
2023-02-27T03:42:20.450Z,7.07
2023-02-27T03:45:24.640Z,7.45
2023-02-27T03:47:51.628Z,8.00
2023-02-27T03:50:18.560Z,8.98
2023-02-27T03:52:46.112Z,8.15
2023-02-27T03:55:17.474Z,8.73
2023-02-27T03:57:46.423Z,8.68
2023-02-27T04:00:17.842Z,8.32
2023-02-27T04:02:46.907Z,7.72
2023-02-27T04:05:13.548Z,8.57
2023-02-27T04:08:08.155Z,7.50
2023-02-27T04:10:59.493Z,8.50
2023-02-27T04:13:44.283Z,7.72
2023-02-27T04:16:26.477Z,8.05
2023-02-27T04:18:59.020Z,9.25
2023-02-27T04:21:40.781Z,8.57
2023-02-27T04:24:16.917Z,8.00
2023-02-27T04:26:49.881Z,7.82
2023-02-27T04:29:44.326Z,8.50
2023-02-27T04:32:40.468Z,10.35
2023-02-27T04:35:32.265Z,11.20
2023-02-27T04:38:25.850Z,9.77
2023-02-27T04:40:55.119Z,9.23
2023-02-27T04:43:24.903Z,9.82
2023-02-27T04:45:54.708Z,9.73
2023-02-27T04:48:26.240Z,11.17
2023-02-27T04:51:12.318Z,9.63
2023-02-27T04:54:01.781Z,8.18
2023-02-27T04:56:34.792Z,9.50
2023-02-27T04:59:33.515Z,8.57
2023-02-27T05:02:06.528Z,12.13
2023-02-27T05:04:37.139Z,9.05
2023-02-27T05:07:07.085Z,8.15
2023-02-27T05:09:55.221Z,7.57
2023-02-27T05:12:26.815Z,8.85
2023-02-27T05:15:06.283Z,8.50
2023-02-27T05:17:38.854Z,9.13
2023-02-27T05:20:09.052Z,8.57
2023-02-27T05:22:38.411Z,10.80
2023-02-27T05:25:14.025Z,8.18
2023-02-27T05:27:56.611Z,8.83
2023-02-27T05:30:36.867Z,9.55
2023-02-27T05:33:18.015Z,10.38
2023-02-27T05:36:17.208Z,12.07
2023-02-27T05:38:48.802Z,9.57
2023-02-27T05:41:25.809Z,10.67
2023-02-27T05:44:05.248Z,9.30
2023-02-27T05:46:37.218Z,9.45
2023-02-27T05:49:18.337Z,10.73
2023-02-27T05:51:49.141Z,8.45
2023-02-27T05:54:43.932Z,10.07
2023-02-27T05:57:16.493Z,8.40
2023-02-27T05:59:50.166Z,9.57
2023-02-27T06:02:17.334Z,9.07
2023-02-27T06:04:44.029Z,10.07
2023-02-27T06:07:13.865Z,11.80
2023-02-27T06:09:42.040Z,11.70
2023-02-27T06:12:08.834Z,10.98
2023-02-27T06:14:35.382Z,11.00
2023-02-27T06:17:02.165Z,10.77
2023-02-27T06:19:28.804Z,13.20
2023-02-27T06:21:55.406Z,13.82
2023-02-27T06:24:22.228Z,21.60
2023-02-27T06:26:48.841Z,16.92
2023-02-27T06:29:15.375Z,12.75
2023-02-27T06:31:42.165Z,13.67
2023-02-27T06:34:08.740Z,11.13
2023-02-27T06:36:35.303Z,11.93
2023-02-27T06:39:01.985Z,13.43
2023-02-27T06:41:29.083Z,13.75
2023-02-27T06:43:56.422Z,12.80
2023-02-27T06:46:24.200Z,12.35
2023-02-27T06:48:50.765Z,12.15
2023-02-27T06:51:17.516Z,9.80
2023-02-27T06:53:44.526Z,12.48
2023-02-27T06:56:11.097Z,9.60
2023-02-27T06:58:37.661Z,12.25
2023-02-27T07:01:04.441Z,9.55
2023-02-27T07:03:31.074Z,9.90
2023-02-27T07:05:58.770Z,8.52
2023-02-27T07:08:25.444Z,9.33
2023-02-27T07:10:52.083Z,10.27
2023-02-27T07:13:19.742Z,11.10
2023-02-27T07:15:46.691Z,11.85
2023-02-27T07:18:13.297Z,9.13
2023-02-27T07:20:40.292Z,12.10
2023-02-27T07:23:07.442Z,10.18
2023-02-27T07:25:34.051Z,9.95
2023-02-27T07:28:00.702Z,11.68
2023-02-27T07:30:30.618Z,8.43
2023-02-27T07:32:58.049Z,8.47
2023-02-27T07:35:24.703Z,10.23
2023-02-27T07:37:51.612Z,8.68
2023-02-27T07:40:18.559Z,8.82
2023-02-27T07:42:48.143Z,11.18
2023-02-27T07:45:15.229Z,9.07
2023-02-27T07:47:43.337Z,13.88
2023-02-27T07:50:14.044Z,10.57
2023-02-27T07:52:41.708Z,9.18
2023-02-27T07:55:10.034Z,8.98
2023-02-27T07:57:36.646Z,9.83
2023-02-27T08:00:09.427Z,9.50
2023-02-27T08:02:36.024Z,10.35
2023-02-27T08:05:02.865Z,10.27
2023-02-27T08:07:29.387Z,10.75
2023-02-27T08:09:55.969Z,8.87
2023-02-27T08:12:22.621Z,8.38
2023-02-27T08:14:49.318Z,9.23
2023-02-27T08:17:16.009Z,8.30
2023-02-27T08:19:42.644Z,10.38
2023-02-27T08:22:09.289Z,8.43
2023-02-27T08:24:35.840Z,7.63
2023-02-27T08:27:02.629Z,7.88
2023-02-27T08:29:30.911Z,7.70
2023-02-27T08:31:57.735Z,9.15
2023-02-27T08:34:25.713Z,10.97
2023-02-27T08:36:52.739Z,10.02
2023-02-27T08:39:20.219Z,12.68
2023-02-27T08:41:46.869Z,11.63
2023-02-27T08:44:13.588Z,9.43
2023-02-27T08:46:40.204Z,8.20
2023-02-27T08:49:06.876Z,9.95
2023-02-27T08:51:33.524Z,10.45
2023-02-27T08:54:00.166Z,7.72
2023-02-27T08:56:28.049Z,7.43
2023-02-27T08:58:55.518Z,11.07
2023-02-27T09:01:22.241Z,8.05
2023-02-27T09:03:49.437Z,10.80
2023-02-27T09:06:16.303Z,8.48
2023-02-27T09:08:42.919Z,8.68
2023-02-27T09:11:09.521Z,8.50
2023-02-27T09:13:36.114Z,12.63
2023-02-27T09:16:02.694Z,7.10
2023-02-27T09:18:29.230Z,9.38
2023-02-27T09:20:56.431Z,8.75
2023-02-27T09:23:23.367Z,11.43
2023-02-27T09:25:50.023Z,8.60
2023-02-27T09:28:16.729Z,7.30
2023-02-27T09:30:43.255Z,7.40
2023-02-27T09:33:09.791Z,8.05
2023-02-27T09:35:36.949Z,8.83
2023-02-27T09:38:03.673Z,8.30
2023-02-27T09:40:32.717Z,8.23
2023-02-27T09:43:04.020Z,7.80
2023-02-27T09:45:33.175Z,7.97
2023-02-27T09:48:19.329Z,7.43
2023-02-27T09:50:48.853Z,7.72
2023-02-27T09:53:31.179Z,6.82
2023-02-27T09:56:05.231Z,8.20
2023-02-27T09:58:41.009Z,8.70
2023-02-27T10:01:23.412Z,8.30
2023-02-27T10:03:56.286Z,7.78
2023-02-27T10:06:27.740Z,9.75
2023-02-27T10:09:02.795Z,8.18
2023-02-27T10:11:54.830Z,8.00
2023-02-27T10:14:47.474Z,7.30
2023-02-27T10:17:22.834Z,7.13
2023-02-27T10:19:52.254Z,8.45
2023-02-27T10:22:26.295Z,7.18
2023-02-27T10:24:59.893Z,7.10
2023-02-27T10:27:26.628Z,8.90
2023-02-27T10:29:57.970Z,9.55
2023-02-27T10:32:29.872Z,6.47
2023-02-27T10:35:27.548Z,7.63
2023-02-27T10:38:04.197Z,7.57
2023-02-27T10:40:31.414Z,6.30
2023-02-27T10:43:01.405Z,7.93
2023-02-27T10:45:28.018Z,6.38
2023-02-27T10:47:55.286Z,6.85
2023-02-27T10:50:31.858Z,5.95
2023-02-27T10:53:03.661Z,9.07
2023-02-27T10:55:36.289Z,7.65
2023-02-27T10:58:04.751Z,8.07
2023-02-27T11:00:45.269Z,6.75
2023-02-27T11:03:42.491Z,6.68
2023-02-27T11:06:22.406Z,8.75
2023-02-27T11:09:10.678Z,7.35
2023-02-27T11:11:38.021Z,6.80
2023-02-27T11:14:19.814Z,6.72
2023-02-27T11:16:52.434Z,6.68
2023-02-27T11:19:34.928Z,8.48
2023-02-27T11:22:20.380Z,8.65
2023-02-27T11:24:48.144Z,7.25
2023-02-27T11:27:22.875Z,6.25
2023-02-27T11:30:06.155Z,8.43
2023-02-27T11:32:35.493Z,8.13
2023-02-27T11:35:04.370Z,5.68
2023-02-27T11:37:35.052Z,5.10
2023-02-27T11:40:12.821Z,4.80
2023-02-27T11:42:51.832Z,6.07
2023-02-27T11:46:13.911Z,6.18
2023-02-27T11:48:19.620Z,5.35
2023-02-27T11:51:20.355Z,6.15
2023-02-27T11:54:01.735Z,5.85
2023-02-27T11:56:47.738Z,6.30
2023-02-27T11:59:38.985Z,5.70
2023-02-27T12:02:14.853Z,6.47
2023-02-27T12:04:54.066Z,4.63
2023-02-27T12:07:27.369Z,5.38
2023-02-27T12:10:08.737Z,5.85
2023-02-27T12:12:50.459Z,3.80
2023-02-27T12:15:47.284Z,6.40
2023-02-27T12:18:26.868Z,4.53
2023-02-27T12:20:53.459Z,3.67
2023-02-27T12:23:39.996Z,3.45
2023-02-27T12:26:22.136Z,3.90
2023-02-27T12:29:02.128Z,4.40
2023-02-27T12:31:42.402Z,3.08
2023-02-27T12:34:29.385Z,3.72
2023-02-27T12:37:33.574Z,3.40
2023-02-27T12:40:01.905Z,5.35
2023-02-27T12:42:59.748Z,4.22
2023-02-27T12:45:53.727Z,6.22
2023-02-27T12:48:38.331Z,5.15
2023-02-27T12:51:07.674Z,4.00
2023-02-27T12:53:43.628Z,3.92
2023-02-27T12:56:17.135Z,3.35
2023-02-27T12:59:25.587Z,4.30
2023-02-27T13:02:02.266Z,3.85
2023-02-27T13:04:47.666Z,3.80
2023-02-27T13:07:29.747Z,4.60
2023-02-27T13:10:01.849Z,4.10
2023-02-27T13:12:42.923Z,4.80
2023-02-27T13:15:25.382Z,3.20
2023-02-27T13:17:59.253Z,17.13
2023-02-27T13:20:36.156Z,7.17
2023-02-27T13:23:19.954Z,6.43
2023-02-27T13:25:51.160Z,6.13
2023-02-27T13:28:27.152Z,5.47
2023-02-27T13:31:29.595Z,4.80
2023-02-27T13:34:17.789Z,5.72
2023-02-27T13:36:48.918Z,4.40
2023-02-27T13:39:40.427Z,4.82
2023-02-27T13:42:25.495Z,4.03
2023-02-27T13:44:58.902Z,4.55
2023-02-27T13:47:31.415Z,4.73
2023-02-27T13:50:04.020Z,5.50
2023-02-27T13:52:33.970Z,4.38
2023-02-27T13:55:11.300Z,4.47
2023-02-27T13:57:39.095Z,8.05
2023-02-27T14:00:53.258Z,6.93
2023-02-27T14:03:25.998Z,3.08
2023-02-27T14:05:56.398Z,4.53
2023-02-27T14:08:46.090Z,5.13
2023-02-27T14:11:28.577Z,3.75
2023-02-27T14:13:57.015Z,3.70
2023-02-27T14:16:41.746Z,4.00
2023-02-27T14:19:22.569Z,5.47
2023-02-27T14:21:52.856Z,4.00
2023-02-27T14:24:49.595Z,4.18
2023-02-27T14:27:28.958Z,3.60
2023-02-27T14:29:58.553Z,4.80
2023-02-27T14:32:32.303Z,3.92
2023-02-27T14:35:00.130Z,8.55
2023-02-27T14:37:27.869Z,14.32
2023-02-27T14:39:56.870Z,9.90
2023-02-27T14:43:02.104Z,4.88
2023-02-27T14:45:30.900Z,7.00
2023-02-27T14:47:58.432Z,8.13
2023-02-27T14:50:37.441Z,5.45
2023-02-27T14:53:05.745Z,4.00
2023-02-27T14:55:34.993Z,3.85
2023-02-27T14:58:07.609Z,4.78
2023-02-27T15:00:38.432Z,5.13
2023-02-27T15:03:11.165Z,3.75
2023-02-27T15:05:38.724Z,4.03
2023-02-27T15:08:05.370Z,3.83
2023-02-27T15:10:33.241Z,3.10
2023-02-27T15:13:01.402Z,5.05
2023-02-27T15:15:28.631Z,2.85
2023-02-27T15:17:55.837Z,3.35
2023-02-27T15:20:24.580Z,4.85
2023-02-27T15:22:51.183Z,4.07
2023-02-27T15:25:31.864Z,4.97
2023-02-27T15:28:03.176Z,3.15
2023-02-27T15:30:30.132Z,4.05
2023-02-27T15:32:57.583Z,3.33
2023-02-27T15:35:30.400Z,4.70
2023-02-27T15:37:59.357Z,4.03
2023-02-27T15:40:28.212Z,3.20
2023-02-27T15:42:56.098Z,5.10
2023-02-27T15:45:34.057Z,5.10
2023-02-27T15:48:01.046Z,4.65
2023-02-27T15:50:33.717Z,4.90
2023-02-27T15:53:09.439Z,4.30
2023-02-27T15:55:39.594Z,3.03
2023-02-27T15:58:26.443Z,5.18
2023-02-27T16:01:13.141Z,4.22
2023-02-27T16:03:46.008Z,4.35
2023-02-27T16:06:18.346Z,3.67
2023-02-27T16:08:50.933Z,4.13
2023-02-27T16:11:23.428Z,4.60
2023-02-27T16:13:51.646Z,7.22
2023-02-27T16:16:21.277Z,6.95
2023-02-27T16:18:50.649Z,6.25
2023-02-27T16:21:19.646Z,6.43
2023-02-27T16:23:47.476Z,8.95
2023-02-27T16:26:31.025Z,7.72
2023-02-27T16:29:19.164Z,8.80
2023-02-27T16:31:49.222Z,9.00
2023-02-27T16:34:42.773Z,12.27
2023-02-27T16:37:22.866Z,12.18
2023-02-27T16:39:52.191Z,15.55
2023-02-27T16:42:19.077Z,16.58
2023-02-27T16:44:45.718Z,11.50
2023-02-27T16:47:12.694Z,11.50
2023-02-27T16:49:40.378Z,13.20
2023-02-27T16:52:10.353Z,10.82
2023-02-27T16:54:37.143Z,9.60
2023-02-27T16:57:04.428Z,10.13
2023-02-27T16:59:36.289Z,9.40
2023-02-27T17:02:06.970Z,11.77
2023-02-27T17:04:33.751Z,12.43
2023-02-27T17:07:02.024Z,11.80
2023-02-27T17:09:29.251Z,12.38
2023-02-27T17:11:56.997Z,15.20
2023-02-27T17:14:24.452Z,18.83
2023-02-27T17:16:50.968Z,18.17
2023-02-27T17:19:17.609Z,17.42
2023-02-27T17:21:44.266Z,16.52
2023-02-27T17:24:11.037Z,10.80
2023-02-27T17:26:37.639Z,11.13
2023-02-27T17:29:05.188Z,15.18
2023-02-27T17:31:31.791Z,15.00
2023-02-27T17:33:58.374Z,9.55
2023-02-27T17:36:25.713Z,8.73
2023-02-27T17:38:57.194Z,8.90
2023-02-27T17:41:24.472Z,7.55
2023-02-27T17:43:52.677Z,6.10
2023-02-27T17:46:19.604Z,5.50
2023-02-27T17:48:47.085Z,6.20
2023-02-27T17:51:15.288Z,5.15
2023-02-27T17:53:42.848Z,7.72
2023-02-27T17:56:10.399Z,6.25
2023-02-27T17:58:37.167Z,4.75
2023-02-27T18:01:09.346Z,5.80
2023-02-27T18:03:36.384Z,7.07
2023-02-27T18:06:03.727Z,4.13
2023-02-27T18:08:31.487Z,7.50
2023-02-27T18:10:58.631Z,15.77
2023-02-27T18:13:27.241Z,16.00
2023-02-27T18:15:55.198Z,13.95
2023-02-27T18:18:22.448Z,14.32
2023-02-27T18:21:00.076Z,12.95
2023-02-27T18:23:26.746Z,14.43
2023-02-27T18:25:59.572Z,14.43
2023-02-27T18:28:26.700Z,16.15
2023-02-27T18:30:53.583Z,14.52
2023-02-27T18:33:20.253Z,13.85
2023-02-27T18:35:47.075Z,14.80
2023-02-27T18:38:13.776Z,18.60
2023-02-27T18:40:40.394Z,19.17
2023-02-27T18:43:07.619Z,18.13
2023-02-27T18:45:34.456Z,18.15
2023-02-27T18:48:01.491Z,19.77
2023-02-27T18:50:28.201Z,21.20
2023-02-27T18:52:56.117Z,26.10
2023-02-27T18:55:22.871Z,30.90
2023-02-27T18:57:50.859Z,39.38
2023-02-27T19:00:24.326Z,42.15
2023-02-27T19:02:51.313Z,38.20
2023-02-27T19:05:18.501Z,35.28
2023-02-27T19:07:45.366Z,40.13
2023-02-27T19:10:12.955Z,43.33
2023-02-27T19:12:39.521Z,39.90
2023-02-27T19:15:06.896Z,42.33
2023-02-27T19:17:33.705Z,42.13
2023-02-27T19:20:00.381Z,36.85
2023-02-27T19:22:30.775Z,39.28
2023-02-27T19:24:57.385Z,32.83
2023-02-27T19:27:24.302Z,34.57
2023-02-27T19:29:51.400Z,28.88
2023-02-27T19:32:18.062Z,22.95
2023-02-27T19:34:44.656Z,22.45
2023-02-27T19:37:11.336Z,23.70
2023-02-27T19:39:37.943Z,23.60
2023-02-27T19:42:04.618Z,25.73
2023-02-27T19:44:31.248Z,23.70
2023-02-27T19:46:57.872Z,21.05
2023-02-27T19:49:24.624Z,24.50
2023-02-27T19:51:51.306Z,27.00
2023-02-27T19:54:18.078Z,25.67
2023-02-27T19:56:44.828Z,27.38
2023-02-27T19:59:12.464Z,26.08
2023-02-27T20:01:39.521Z,23.05
2023-02-27T20:04:07.790Z,21.77
2023-02-27T20:06:53.830Z,23.63
2023-02-27T20:09:20.763Z,24.10
2023-02-27T20:11:50.953Z,24.33
2023-02-27T20:14:17.682Z,25.45
2023-02-27T20:16:44.925Z,22.90
2023-02-27T20:19:17.333Z,23.20
2023-02-27T20:21:45.456Z,22.08
2023-02-27T20:24:14.166Z,25.40
2023-02-27T20:26:47.725Z,22.88
2023-02-27T20:29:20.056Z,25.07
2023-02-27T20:31:48.863Z,23.58
2023-02-27T20:34:21.766Z,23.30
2023-02-27T20:36:53.098Z,23.75
2023-02-27T20:39:20.776Z,22.98
2023-02-27T20:41:47.685Z,19.83
2023-02-27T20:44:14.724Z,18.60
2023-02-27T20:46:42.657Z,19.88
2023-02-27T20:49:12.335Z,18.30
2023-02-27T20:51:39.433Z,19.15
2023-02-27T20:54:08.418Z,19.20
2023-02-27T20:56:39.829Z,20.67
2023-02-27T20:59:09.551Z,17.90
2023-02-27T21:01:38.477Z,16.20
2023-02-27T21:04:05.403Z,16.98
2023-02-27T21:06:32.318Z,17.20
2023-02-27T21:09:04.063Z,17.33
2023-02-27T21:11:31.800Z,15.07
2023-02-27T21:14:02.215Z,15.77
2023-02-27T21:16:28.860Z,15.70
2023-02-27T21:18:56.922Z,14.43
2023-02-27T21:21:33.116Z,16.55
2023-02-27T21:24:00.196Z,14.15
2023-02-27T21:26:26.734Z,13.88
2023-02-27T21:28:56.400Z,13.77
2023-02-27T21:31:24.485Z,12.33
2023-02-27T21:33:52.306Z,12.77
2023-02-27T21:36:25.122Z,15.43
2023-02-27T21:38:58.450Z,15.00
2023-02-27T21:41:25.157Z,11.68
2023-02-27T21:43:51.687Z,9.77
2023-02-27T21:46:20.801Z,10.98
2023-02-27T21:48:47.577Z,10.35
2023-02-27T21:51:14.099Z,10.13
2023-02-27T21:53:40.969Z,8.35
2023-02-27T21:56:09.941Z,9.13
2023-02-27T21:58:37.241Z,8.68
2023-02-27T22:01:15.407Z,8.38
2023-02-27T22:03:43.359Z,7.75
2023-02-27T22:06:11.131Z,10.35
2023-02-27T22:08:38.376Z,11.93
2023-02-27T22:11:05.171Z,10.25
2023-02-27T22:13:32.188Z,10.35
2023-02-27T22:16:05.330Z,12.05
2023-02-27T22:18:32.801Z,9.23
2023-02-27T22:21:00.236Z,10.40
2023-02-27T22:23:27.158Z,9.05
2023-02-27T22:26:08.048Z,9.45
2023-02-27T22:28:35.353Z,8.77
2023-02-27T22:31:06.931Z,7.93
2023-02-27T22:33:33.539Z,9.83
2023-02-27T22:36:00.282Z,8.68
2023-02-27T22:38:26.936Z,8.98
2023-02-27T22:40:53.523Z,9.75
2023-02-27T22:43:20.120Z,10.63
2023-02-27T22:45:47.121Z,8.57
2023-02-27T22:48:13.964Z,7.20
2023-02-27T22:50:40.585Z,10.00
2023-02-27T22:53:07.094Z,7.85
2023-02-27T22:55:33.669Z,8.45
2023-02-27T22:58:00.227Z,9.30
2023-02-27T23:00:26.781Z,7.47
2023-02-27T23:02:53.269Z,8.02
2023-02-27T23:05:20.058Z,7.20
2023-02-27T23:07:47.177Z,8.93
2023-02-27T23:10:13.723Z,7.40
2023-02-27T23:12:40.402Z,8.98
2023-02-27T23:15:07.811Z,7.65
2023-02-27T23:17:34.392Z,8.60
2023-02-27T23:20:00.897Z,8.68
2023-02-27T23:22:33.293Z,10.17
2023-02-27T23:25:00.573Z,7.57
2023-02-27T23:27:27.097Z,9.07
2023-02-27T23:29:53.739Z,8.63
2023-02-27T23:32:20.479Z,8.05
2023-02-27T23:34:49.579Z,8.87
2023-02-27T23:37:16.557Z,9.02
2023-02-27T23:39:43.196Z,9.25
2023-02-27T23:42:09.748Z,9.60
2023-02-27T23:44:36.300Z,9.15
2023-02-27T23:47:02.876Z,9.20
2023-02-27T23:49:29.453Z,7.68
2023-02-27T23:51:56.089Z,10.15
2023-02-27T23:54:22.667Z,10.73
2023-02-27T23:56:49.310Z,9.07
2023-02-27T23:59:15.859Z,8.83
